Time;durP1;ratioP1;P1;durP2;ratioP2;P2;SDS_P1;SDS_P2;PMS_P1;PMS_P2;Temp;Humidity;BMP_temperature;BMP_pressure;BME280_temperature;BME280_humidity;BME280_pressure;Samples;Min_cycle;Max_cycle;Signal;HPM_P1;HPM_P2
2024/01/18 00:00:06;;;;;;;0.22;0.22;;;3.20;99.90;;;;;;5034589;28;20025;-72
2024/01/18 00:02:31;;;;;;;0.20;0.20;;;3.10;99.90;;;;;;5034876;28;20034;-71
2024/01/18 00:04:57;;;;;;;0.20;0.20;;;3.00;99.90;;;;;;5034105;28;20473;-70
2024/01/18 00:07:22;;;;;;;0.20;0.20;;;3.00;99.90;;;;;;5034286;28;20033;-71
2024/01/18 00:09:48;;;;;;;0.20;0.20;;;2.90;99.90;;;;;;5034043;28;20092;-70
2024/01/18 00:12:13;;;;;;;0.30;0.30;;;2.90;99.90;;;;;;5034084;28;20446;-71
2024/01/18 00:14:39;;;;;;;0.30;0.30;;;2.80;99.90;;;;;;5032963;28;20049;-70
2024/01/18 00:17:04;;;;;;;0.30;0.30;;;2.70;99.90;;;;;;5034330;28;20068;-71
2024/01/18 00:19:30;;;;;;;0.57;0.57;;;2.70;99.90;;;;;;5034020;28;20048;-70
2024/01/18 00:21:55;;;;;;;0.30;0.30;;;2.60;99.90;;;;;;5032888;28;20042;-70
2024/01/18 00:24:21;;;;;;;0.30;0.30;;;2.60;99.90;;;;;;5034071;28;20029;-70
2024/01/18 00:26:47;;;;;;;0.20;0.20;;;2.60;99.90;;;;;;5032394;28;20453;-70
2024/01/18 00:29:12;;;;;;;0.30;0.30;;;2.50;99.90;;;;;;5032299;28;20030;-70
2024/01/18 00:31:38;;;;;;;0.30;0.30;;;2.50;99.90;;;;;;5034318;28;20030;-70
2024/01/18 00:34:03;;;;;;;0.30;0.30;;;2.40;99.90;;;;;;5033727;28;20532;-71
2024/01/18 00:36:29;;;;;;;0.30;0.30;;;2.40;99.90;;;;;;5033567;28;20045;-70
2024/01/18 00:38:54;;;;;;;0.30;0.30;;;2.40;99.90;;;;;;5033842;28;20021;-71
2024/01/18 00:41:20;;;;;;;0.30;0.30;;;2.40;99.90;;;;;;5033839;28;20029;-70
2024/01/18 00:43:49;;;;;;;0.30;0.30;;;2.40;99.90;;;;;;5033960;28;20026;-70
2024/01/18 00:46:18;;;;;;;2.10;0.73;;;2.40;99.90;;;;;;5033795;28;20052;-70
2024/01/18 00:48:44;;;;;;;1.17;0.50;;;2.50;99.90;;;;;;5033372;28;20021;-69
2024/01/18 00:51:09;;;;;;;1.08;0.45;;;2.60;99.90;;;;;;5033898;28;20087;-70
2024/01/18 00:53:35;;;;;;;0.40;0.40;;;2.60;99.90;;;;;;5033433;28;20428;-69
2024/01/18 00:56:01;;;;;;;0.30;0.30;;;2.60;99.90;;;;;;5033629;28;20358;-70
2024/01/18 00:58:26;;;;;;;22.13;11.63;;;2.70;99.90;;;;;;5033348;28;20021;-70
2024/01/18 01:00:52;;;;;;;1.05;1.05;;;2.70;99.90;;;;;;5033108;28;20036;-69
2024/01/18 01:03:17;;;;;;;1.33;1.23;;;2.70;99.90;;;;;;5033061;28;20041;-70
2024/01/18 01:05:43;;;;;;;0.60;0.60;;;2.60;99.90;;;;;;5033424;28;20029;-70
2024/01/18 01:08:08;;;;;;;0.70;0.70;;;2.60;99.90;;;;;;5033303;28;20108;-70
2024/01/18 01:10:34;;;;;;;0.70;0.70;;;2.50;99.90;;;;;;5033137;28;20465;-71
2024/01/18 01:13:00;;;;;;;0.70;0.70;;;2.40;99.90;;;;;;5033196;28;20434;-70
2024/01/18 01:15:26;;;;;;;0.70;0.70;;;2.40;99.90;;;;;;5033043;28;20073;-70
2024/01/18 01:17:52;;;;;;;0.80;0.80;;;2.40;99.90;;;;;;5032754;28;20076;-70
2024/01/18 01:20:17;;;;;;;0.70;0.70;;;2.50;99.90;;;;;;5033359;28;20033;-70
2024/01/18 01:22:43;;;;;;;0.80;0.80;;;2.50;99.90;;;;;;5033015;28;20034;-70
2024/01/18 01:25:08;;;;;;;0.90;0.90;;;2.50;99.90;;;;;;5031724;28;20063;-70
2024/01/18 01:27:34;;;;;;;0.90;0.90;;;2.50;99.90;;;;;;5032994;28;20039;-71
2024/01/18 01:30:00;;;;;;;0.82;0.82;;;2.50;99.90;;;;;;5033433;28;20025;-70
2024/01/18 01:32:25;;;;;;;0.90;0.90;;;2.40;99.90;;;;;;5032894;28;20103;-69
2024/01/18 01:34:51;;;;;;;1.00;1.00;;;2.40;99.90;;;;;;5032578;28;20065;-69
2024/01/18 01:37:16;;;;;;;1.00;1.00;;;2.30;99.90;;;;;;5032826;28;20022;-71
2024/01/18 01:39:42;;;;;;;1.10;1.10;;;2.30;99.90;;;;;;5032754;28;20025;-70
2024/01/18 01:42:08;;;;;;;1.20;1.20;;;2.20;99.90;;;;;;5032659;28;20072;-68
2024/01/18 01:44:34;;;;;;;1.20;1.20;;;2.10;99.90;;;;;;5032865;28;20029;-70
2024/01/18 01:46:59;;;;;;;1.30;1.30;;;2.10;99.90;;;;;;5032630;28;20480;-69
2024/01/18 01:49:25;;;;;;;1.20;1.20;;;2.00;99.90;;;;;;5032574;28;20037;-69
2024/01/18 01:51:52;;;;;;;1.30;1.30;;;1.90;99.90;;;;;;5032276;28;20034;-68
2024/01/18 01:54:21;;;;;;;1.30;1.30;;;1.90;99.90;;;;;;5032654;28;20350;-69
2024/01/18 01:56:51;;;;;;;1.30;1.30;;;1.80;99.90;;;;;;5032532;28;20111;-69
2024/01/18 01:59:17;;;;;;;1.40;1.40;;;1.80;99.90;;;;;;5032386;28;20393;-69
2024/01/18 02:01:45;;;;;;;1.50;1.50;;;1.80;99.90;;;;;;5032294;28;20155;-69
2024/01/18 02:04:12;;;;;;;1.50;1.50;;;1.70;99.90;;;;;;5032711;28;20531;-69
2024/01/18 02:06:39;;;;;;;1.50;1.50;;;1.70;99.90;;;;;;5032443;28;20458;-69
2024/01/18 02:09:07;;;;;;;1.50;1.50;;;1.70;99.90;;;;;;5032416;28;20053;-69
2024/01/18 02:11:33;;;;;;;1.60;1.60;;;1.60;99.90;;;;;;5032668;28;20180;-70
2024/01/18 02:13:58;;;;;;;1.60;1.60;;;1.60;99.90;;;;;;5032199;28;20116;-70
2024/01/18 02:16:24;;;;;;;1.52;1.52;;;1.60;99.90;;;;;;5032022;28;20025;-70
2024/01/18 02:18:49;;;;;;;1.60;1.60;;;1.60;99.90;;;;;;5032289;28;20022;-70
2024/01/18 02:21:15;;;;;;;1.70;1.70;;;1.60;99.90;;;;;;5032475;28;20193;-69
2024/01/18 02:23:45;;;;;;;2.10;2.00;;;1.50;99.90;;;;;;5032564;28;20057;-70
2024/01/18 02:26:11;;;;;;;2.20;2.10;;;1.60;99.90;;;;;;5031847;28;20021;-71
2024/01/18 02:28:37;;;;;;;2.03;2.03;;;1.60;99.90;;;;;;5032194;28;20026;-70
2024/01/18 02:31:02;;;;;;;4.03;2.10;;;1.60;99.90;;;;;;5032197;28;20432;-68
2024/01/18 02:33:28;;;;;;;2.10;2.00;;;1.70;99.90;;;;;;5031905;28;20467;-71
2024/01/18 02:35:54;;;;;;;2.40;2.30;;;1.70;99.90;;;;;;5030857;28;20083;-70
2024/01/18 02:38:20;;;;;;;2.35;2.25;;;1.70;99.90;;;;;;5032639;28;20029;-68
2024/01/18 02:40:46;;;;;;;2.00;2.00;;;1.70;99.90;;;;;;5032342;28;20454;-71
2024/01/18 02:43:11;;;;;;;2.10;2.10;;;1.70;99.90;;;;;;5032046;28;20377;-70
2024/01/18 02:45:37;;;;;;;2.20;2.20;;;1.70;99.90;;;;;;5032145;28;20036;-71
2024/01/18 02:48:04;;;;;;;2.20;2.20;;;1.70;99.90;;;;;;5032042;28;20025;-71
2024/01/18 02:50:30;;;;;;;2.50;2.40;;;1.70;99.90;;;;;;5032739;28;20079;-70
2024/01/18 02:52:55;;;;;;;2.42;2.40;;;1.80;99.90;;;;;;5035491;28;20508;-70
2024/01/18 02:55:21;;;;;;;2.20;2.20;;;1.80;99.90;;;;;;5035649;28;20120;-70
2024/01/18 02:57:46;;;;;;;2.50;2.40;;;1.90;99.90;;;;;;5035459;28;20380;-71
2024/01/18 03:00:12;;;;;;;2.60;2.50;;;1.90;99.90;;;;;;5035516;28;20025;-71
2024/01/18 03:02:38;;;;;;;2.70;2.60;;;1.90;99.90;;;;;;5035357;28;20032;-71
2024/01/18 03:05:03;;;;;;;2.60;2.50;;;1.80;99.90;;;;;;5035365;28;20458;-71
2024/01/18 03:07:29;;;;;;;2.70;2.60;;;1.80;99.90;;;;;;5035476;28;20037;-70
2024/01/18 03:09:55;;;;;;;2.90;2.80;;;1.80;99.90;;;;;;5035141;28;20053;-69
2024/01/18 03:12:20;;;;;;;3.00;2.90;;;1.70;99.90;;;;;;5035758;28;20040;-72
2024/01/18 03:14:46;;;;;;;3.10;3.00;;;1.70;99.90;;;;;;5033832;28;20041;-71
2024/01/18 03:17:11;;;;;;;3.00;2.90;;;1.60;99.90;;;;;;5035487;28;20033;-72
2024/01/18 03:19:37;;;;;;;3.00;2.90;;;1.60;99.90;;;;;;5035725;28;20112;-70
2024/01/18 03:22:02;;;;;;;3.05;2.95;;;1.50;99.90;;;;;;5035403;28;20029;-71
2024/01/18 03:24:29;;;;;;;3.10;3.00;;;1.50;99.90;;;;;;5035322;28;20029;-70
2024/01/18 03:26:54;;;;;;;3.20;3.10;;;1.40;99.90;;;;;;5034961;28;20109;-70
2024/01/18 03:29:20;;;;;;;3.00;2.90;;;1.40;99.90;;;;;;5033613;28;20440;-71
2024/01/18 03:31:45;;;;;;;3.10;3.00;;;1.30;99.90;;;;;;5034920;28;20032;-71
2024/01/18 03:34:11;;;;;;;3.20;3.10;;;1.30;99.90;;;;;;5034838;28;20045;-70
2024/01/18 03:36:36;;;;;;;3.00;2.90;;;1.30;99.90;;;;;;5035059;28;20029;-71
2024/01/18 03:39:02;;;;;;;2.90;2.80;;;1.20;99.90;;;;;;5034895;28;20097;-70
2024/01/18 03:41:28;;;;;;;3.10;3.00;;;1.20;99.90;;;;;;5034563;28;20026;-71
2024/01/18 03:43:53;;;;;;;3.10;3.00;;;1.20;99.90;;;;;;5035036;28;20026;-70
2024/01/18 03:46:19;;;;;;;3.92;3.72;;;1.20;99.90;;;;;;5034750;28;20033;-71
2024/01/18 03:48:44;;;;;;;3.00;2.90;;;1.10;99.90;;;;;;5034785;28;20025;-70
2024/01/18 03:51:10;;;;;;;3.00;2.90;;;1.10;99.90;;;;;;5034957;28;20443;-70
2024/01/18 03:53:36;;;;;;;2.80;2.70;;;1.10;99.90;;;;;;5034561;28;20752;-70
2024/01/18 03:56:02;;;;;;;2.80;2.70;;;1.00;99.90;;;;;;5034372;28;20026;-70
2024/01/18 03:58:27;;;;;;;2.90;2.80;;;1.00;99.90;;;;;;5034188;28;20021;-71
2024/01/18 04:00:53;;;;;;;2.90;2.80;;;1.00;99.90;;;;;;5034396;28;20026;-68
2024/01/18 04:03:20;;;;;;;2.70;2.60;;;1.00;99.90;;;;;;5033161;28;20108;-70
2024/01/18 04:05:45;;;;;;;2.30;2.30;;;0.90;99.90;;;;;;5032923;28;20113;-70
2024/01/18 04:08:11;;;;;;;2.60;2.50;;;0.90;99.90;;;;;;5034561;28;20037;-69
2024/01/18 04:10:36;;;;;;;2.70;2.60;;;0.90;99.90;;;;;;5034188;28;20068;-71
2024/01/18 04:13:02;;;;;;;2.80;2.70;;;0.90;99.90;;;;;;5034110;28;20168;-69
2024/01/18 04:15:28;;;;;;;2.60;2.50;;;0.90;99.90;;;;;;5033913;28;20159;-71
2024/01/18 04:17:54;;;;;;;2.80;2.70;;;0.90;99.90;;;;;;5033030;28;20455;-71
2024/01/18 04:20:23;;;;;;;2.83;2.72;;;0.90;99.90;;;;;;5033863;28;20036;-69
2024/01/18 04:22:48;;;;;;;2.70;2.60;;;0.90;99.90;;;;;;5034153;28;20026;-70
2024/01/18 04:25:14;;;;;;;2.70;2.60;;;1.00;99.90;;;;;;5033733;28;20424;-69
2024/01/18 04:27:40;;;;;;;3.20;3.10;;;1.00;99.90;;;;;;5033593;28;20036;-70
2024/01/18 04:30:06;;;;;;;2.58;2.47;;;1.10;99.90;;;;;;5033983;28;20350;-70
2024/01/18 04:32:31;;;;;;;2.60;2.50;;;1.10;99.90;;;;;;5034029;28;20064;-69
2024/01/18 04:34:57;;;;;;;2.90;2.80;;;1.10;99.90;;;;;;5033768;28;20095;-71
2024/01/18 04:37:22;;;;;;;2.78;2.67;;;1.20;99.90;;;;;;5033763;28;20030;-70
2024/01/18 04:39:48;;;;;;;2.90;2.80;;;1.30;99.90;;;;;;5033643;28;20025;-69
2024/01/18 04:42:15;;;;;;;2.80;2.70;;;1.30;99.90;;;;;;5033517;28;20025;-70
2024/01/18 04:44:41;;;;;;;2.80;2.70;;;1.30;99.90;;;;;;5033628;28;20109;-70
2024/01/18 04:47:07;;;;;;;2.90;2.80;;;1.30;99.90;;;;;;5033990;28;20030;-69
2024/01/18 04:49:33;;;;;;;2.90;2.80;;;1.30;99.90;;;;;;5033601;28;20124;-70
2024/01/18 04:51:59;;;;;;;2.90;2.80;;;1.30;99.90;;;;;;5033697;28;20033;-70
2024/01/18 04:54:25;;;;;;;2.80;2.70;;;1.30;99.90;;;;;;5033233;28;20033;-69
2024/01/18 04:56:51;;;;;;;3.10;3.00;;;1.30;99.90;;;;;;5033012;28;20420;-69
2024/01/18 04:59:18;;;;;;;2.80;2.70;;;1.30;99.90;;;;;;5033348;28;20048;-69
2024/01/18 05:01:44;;;;;;;2.80;2.70;;;1.20;99.90;;;;;;5033420;28;20036;-70
2024/01/18 05:04:09;;;;;;;3.05;2.95;;;1.20;99.90;;;;;;5032203;28;20386;-69
2024/01/18 05:06:35;;;;;;;2.90;2.80;;;1.10;99.90;;;;;;5033478;28;20033;-70
2024/01/18 05:09:01;;;;;;;3.00;2.90;;;1.10;99.90;;;;;;5033278;28;20172;-68
2024/01/18 05:11:26;;;;;;;2.95;2.85;;;1.10;99.90;;;;;;5033416;28;20037;-69
2024/01/18 05:13:52;;;;;;;2.92;2.83;;;1.10;99.90;;;;;;5032880;28;20037;-69
2024/01/18 05:16:19;;;;;;;2.80;2.70;;;1.00;99.90;;;;;;5033205;28;20030;-69
2024/01/18 05:18:44;;;;;;;3.50;3.40;;;1.00;99.90;;;;;;5033327;28;20056;-70
2024/01/18 05:21:10;;;;;;;3.40;3.30;;;1.00;99.90;;;;;;5032980;28;20462;-69
2024/01/18 05:23:36;;;;;;;3.60;3.50;;;1.00;99.90;;;;;;5031748;28;20488;-69
2024/01/18 05:26:03;;;;;;;3.20;3.10;;;0.90;99.90;;;;;;5033156;28;20025;-68
2024/01/18 05:28:28;;;;;;;3.30;3.20;;;0.90;99.90;;;;;;5033128;28;20052;-68
2024/01/18 05:30:54;;;;;;;3.42;3.33;;;0.90;99.90;;;;;;5032714;28;20469;-69
2024/01/18 05:33:20;;;;;;;3.20;3.10;;;0.80;99.90;;;;;;5032889;28;20462;-69
2024/01/18 05:35:46;;;;;;;3.30;3.20;;;0.80;99.90;;;;;;5032950;28;20072;-69
2024/01/18 05:38:11;;;;;;;3.10;3.00;;;0.80;99.90;;;;;;5032601;28;20022;-68
2024/01/18 05:40:37;;;;;;;3.10;3.00;;;0.80;99.90;;;;;;5033063;28;20029;-68
2024/01/18 05:43:03;;;;;;;3.05;2.95;;;0.80;99.90;;;;;;5032971;28;20108;-69
2024/01/18 05:45:28;;;;;;;3.30;3.20;;;0.70;99.90;;;;;;5033239;28;20029;-68
2024/01/18 05:47:54;;;;;;;3.00;2.90;;;0.70;99.90;;;;;;5032566;28;20072;-69
2024/01/18 05:50:19;;;;;;;3.40;3.30;;;0.70;99.90;;;;;;5033087;28;20029;-69
2024/01/18 05:52:45;;;;;;;3.20;3.10;;;0.70;99.90;;;;;;5032848;28;20059;-68
2024/01/18 05:55:11;;;;;;;3.25;3.15;;;0.70;99.90;;;;;;5032360;28;20073;-69
2024/01/18 05:57:41;;;;;;;3.28;3.17;;;0.70;99.90;;;;;;5032889;28;20087;-69
2024/01/18 06:00:07;;;;;;;3.40;3.30;;;0.70;99.90;;;;;;5032820;28;20030;-69
2024/01/18 06:02:32;;;;;;;3.30;3.20;;;0.70;99.90;;;;;;5032522;28;20033;-69
2024/01/18 06:04:58;;;;;;;5.57;5.18;;;0.60;99.90;;;;;;5032848;28;20032;-69
2024/01/18 06:07:24;;;;;;;2.90;2.80;;;0.60;99.90;;;;;;5032423;28;20026;-69
2024/01/18 06:09:49;;;;;;;2.90;2.80;;;0.60;99.90;;;;;;5032484;28;20568;-69
2024/01/18 06:12:15;;;;;;;3.10;3.00;;;0.60;99.90;;;;;;5032481;28;20029;-69
2024/01/18 06:14:42;;;;;;;2.90;2.80;;;0.60;99.90;;;;;;5032286;28;20129;-69
2024/01/18 06:17:07;;;;;;;2.70;2.60;;;0.60;99.90;;;;;;5032505;28;20100;-69
2024/01/18 06:19:33;;;;;;;2.90;2.80;;;0.60;99.90;;;;;;5032233;28;20545;-69
2024/01/18 06:21:59;;;;;;;2.72;2.63;;;0.60;99.90;;;;;;5032038;28;20444;-69
2024/01/18 06:24:25;;;;;;;2.50;2.40;;;0.60;99.90;;;;;;5032479;28;20037;-70
2024/01/18 06:26:52;;;;;;;2.70;2.60;;;0.60;99.90;;;;;;5035269;28;20025;-69
2024/01/18 06:29:17;;;;;;;2.70;2.60;;;0.60;99.90;;;;;;5036416;28;20034;-69
2024/01/18 06:31:43;;;;;;;2.60;2.50;;;0.60;99.90;;;;;;5036435;28;20092;-69
2024/01/18 06:34:10;;;;;;;2.70;2.60;;;0.60;99.90;;;;;;5036256;28;20075;-68
2024/01/18 06:36:37;;;;;;;2.60;2.50;;;0.60;99.90;;;;;;5034808;28;20064;-70
2024/01/18 06:39:03;;;;;;;2.35;2.30;;;0.60;99.90;;;;;;5035046;28;20068;-69
2024/01/18 06:41:28;;;;;;;2.22;2.22;;;0.70;99.90;;;;;;5035015;28;20417;-69
2024/01/18 06:43:54;;;;;;;2.20;2.20;;;0.70;99.90;;;;;;5036097;28;20025;-69
2024/01/18 06:46:21;;;;;;;2.00;2.00;;;0.70;99.90;;;;;;5036166;28;20065;-70
2024/01/18 06:48:53;;;;;;;1.90;1.90;;;0.70;99.90;;;;;;5036438;28;20492;-69
2024/01/18 06:51:19;;;;;;;;;;;0.70;99.90;;;;;;5036313;28;20060;-69
2024/01/18 06:53:45;;;;;;;1.98;1.98;;;0.70;99.90;;;;;;5035881;28;20338;-69
2024/01/18 06:56:12;;;;;;;2.65;2.45;;;0.70;99.90;;;;;;5034423;28;20078;-69
2024/01/18 06:58:38;;;;;;;1.80;1.80;;;0.70;99.90;;;;;;5036035;28;20040;-70
2024/01/18 07:01:03;;;;;;;1.90;1.90;;;0.70;99.90;;;;;;5035126;28;20018;-69
2024/01/18 07:03:30;;;;;;;2.00;2.00;;;0.70;99.90;;;;;;5035300;28;20048;-70
2024/01/18 07:05:56;;;;;;;2.00;2.00;;;0.80;99.90;;;;;;5035625;28;20067;-69
2024/01/18 07:08:24;;;;;;;2.10;2.10;;;0.80;99.90;;;;;;5035682;28;20112;-70
2024/01/18 07:10:50;;;;;;;2.00;2.00;;;0.80;99.90;;;;;;5034058;28;20563;-69
2024/01/18 07:13:15;;;;;;;2.10;2.10;;;0.90;99.90;;;;;;5035133;28;20061;-69
2024/01/18 07:15:41;;;;;;;3.47;3.20;;;0.90;99.90;;;;;;5035779;28;20037;-69
2024/01/18 07:18:06;;;;;;;2.20;2.20;;;0.90;99.90;;;;;;5034948;28;20025;-69
2024/01/18 07:20:32;;;;;;;2.50;2.40;;;1.00;99.90;;;;;;5035010;28;20163;-69
2024/01/18 07:22:58;;;;;;;2.60;2.50;;;1.00;99.90;;;;;;5035364;28;20076;-69
2024/01/18 07:25:23;;;;;;;2.50;2.40;;;1.00;99.90;;;;;;5035028;28;20022;-69
2024/01/18 07:27:49;;;;;;;2.20;2.20;;;1.10;99.90;;;;;;5035446;28;20576;-69
2024/01/18 07:30:14;;;;;;;2.13;2.13;;;1.10;99.90;;;;;;5035531;28;20454;-69
2024/01/18 07:32:40;;;;;;;2.10;2.10;;;1.10;99.90;;;;;;5035308;28;20038;-69
2024/01/18 07:35:06;;;;;;;2.10;2.10;;;1.10;99.90;;;;;;5035111;28;20037;-69
2024/01/18 07:37:32;;;;;;;2.10;2.10;;;1.00;99.90;;;;;;5032628;28;20505;-69
2024/01/18 07:39:58;;;;;;;2.10;2.10;;;1.00;99.90;;;;;;5035084;28;20026;-69
2024/01/18 07:42:23;;;;;;;2.30;2.30;;;1.00;99.90;;;;;;5034918;28;20036;-69
2024/01/18 07:44:49;;;;;;;2.20;2.20;;;1.00;99.90;;;;;;5034803;28;20083;-69
2024/01/18 07:47:16;;;;;;;2.20;2.20;;;1.00;99.90;;;;;;5034742;28;20033;-69
2024/01/18 07:49:45;;;;;;;2.30;2.30;;;1.00;99.90;;;;;;5034400;28;20091;-69
2024/01/18 07:52:15;;;;;;;2.10;2.10;;;1.00;99.90;;;;;;5034982;28;20025;-69
2024/01/18 07:54:40;;;;;;;2.10;2.10;;;1.00;99.90;;;;;;5034789;28;20072;-69
2024/01/18 07:57:06;;;;;;;1.90;1.90;;;1.00;99.90;;;;;;5034926;28;20393;-68
2024/01/18 07:59:32;;;;;;;2.05;2.05;;;1.00;99.90;;;;;;5034469;28;20481;-69
2024/01/18 08:01:57;;;;;;;2.10;2.10;;;1.00;99.90;;;;;;5034098;28;20022;-69
2024/01/18 08:04:23;;;;;;;2.15;2.15;;;1.00;99.90;;;;;;5034214;28;20025;-69
2024/01/18 08:06:48;;;;;;;2.15;2.15;;;1.00;99.90;;;;;;5033316;28;20029;-70
2024/01/18 08:09:15;;;;;;;1.65;1.65;;;1.10;99.90;;;;;;5031495;28;20045;-69
2024/01/18 08:11:40;;;;;;;1.60;1.60;;;1.10;99.90;;;;;;5034150;28;20029;-69
2024/01/18 08:14:07;;;;;;;1.50;1.50;;;1.20;99.90;;;;;;5034317;28;20047;-69
2024/01/18 08:16:33;;;;;;;1.50;1.50;;;1.10;99.90;;;;;;5033819;28;20113;-69
2024/01/18 08:18:59;;;;;;;1.40;1.40;;;1.20;99.90;;;;;;5035560;28;20025;-69
2024/01/18 08:21:24;;;;;;;1.30;1.30;;;1.20;99.90;;;;;;5054111;28;20033;-69
2024/01/18 08:23:50;;;;;;;1.30;1.30;;;1.30;99.90;;;;;;5053769;28;20045;-69
2024/01/18 08:26:16;;;;;;;3.15;2.95;;;1.30;99.90;;;;;;5048293;28;22954;-69
2024/01/18 08:28:43;;;;;;;1.20;1.20;;;1.40;99.90;;;;;;5033842;28;20035;-69
2024/01/18 08:31:08;;;;;;;1.30;1.30;;;1.40;99.90;;;;;;5031556;28;20021;-69
2024/01/18 08:33:34;;;;;;;1.30;1.30;;;1.50;99.90;;;;;;5033627;28;20084;-69
2024/01/18 08:36:01;;;;;;;1.45;1.45;;;1.70;99.90;;;;;;5034335;28;20088;-69
2024/01/18 08:38:27;;;;;;;4.78;1.55;;;2.00;99.90;;;;;;5033164;28;20035;-70
2024/01/18 08:40:52;;;;;;;0.80;0.80;;;2.30;99.90;;;;;;5032365;28;20108;-69
2024/01/18 08:43:22;;;;;;;0.70;0.70;;;2.50;99.90;;;;;;5032768;28;20065;-70
2024/01/18 08:45:47;;;;;;;0.80;0.80;;;2.60;99.90;;;;;;5033273;28;20023;-70
2024/01/18 08:48:13;;;;;;;0.70;0.70;;;2.80;99.90;;;;;;5032677;28;20432;-70
2024/01/18 08:50:39;;;;;;;0.70;0.70;;;2.90;99.90;;;;;;5032241;28;20070;-69
2024/01/18 08:53:05;;;;;;;0.80;0.80;;;3.00;99.90;;;;;;5032878;28;20017;-69
2024/01/18 08:55:30;;;;;;;0.90;0.90;;;3.10;99.90;;;;;;5032720;28;20063;-69
2024/01/18 08:57:56;;;;;;;0.90;0.90;;;3.30;99.90;;;;;;5032881;28;20450;-70
2024/01/18 09:00:21;;;;;;;0.90;0.90;;;3.50;99.90;;;;;;5032338;28;20037;-70
2024/01/18 09:02:47;;;;;;;0.80;0.80;;;3.60;99.90;;;;;;5030063;28;20040;-70
2024/01/18 09:05:13;;;;;;;0.90;0.90;;;3.70;99.90;;;;;;5032645;28;20021;-70
2024/01/18 09:07:39;;;;;;;0.90;0.90;;;3.80;99.90;;;;;;5032505;28;20505;-70
2024/01/18 09:10:07;;;;;;;0.70;0.70;;;3.80;99.90;;;;;;5032041;28;20095;-70
2024/01/18 09:12:32;;;;;;;0.80;0.80;;;4.00;99.90;;;;;;5032428;28;20018;-71
2024/01/18 09:14:58;;;;;;;0.80;0.80;;;4.10;99.90;;;;;;5029446;28;20040;-71
2024/01/18 09:17:23;;;;;;;0.60;0.60;;;4.40;99.90;;;;;;5030938;28;20466;-71
2024/01/18 09:19:49;;;;;;;0.55;0.55;;;4.60;99.90;;;;;;5031346;28;20025;-70
2024/01/18 09:22:15;;;;;;;0.60;0.60;;;4.60;99.90;;;;;;5031097;28;20453;-70
2024/01/18 09:24:44;;;;;;;0.70;0.70;;;4.60;99.90;;;;;;5031277;28;20358;-70
2024/01/18 09:27:09;;;;;;;2.47;1.13;;;4.50;99.90;;;;;;5030148;28;20168;-70
2024/01/18 09:29:36;;;;;;;1.13;0.82;;;4.30;99.90;;;;;;5030734;28;20112;-71
2024/01/18 09:32:02;;;;;;;0.80;0.80;;;4.20;99.90;;;;;;5031084;28;20159;-72
2024/01/18 09:34:28;;;;;;;1.17;1.15;;;4.00;99.90;;;;;;5030765;28;20076;-70
2024/01/18 09:36:53;;;;;;;0.70;0.70;;;4.00;99.90;;;;;;5031203;28;20456;-71
2024/01/18 09:39:19;;;;;;;0.70;0.70;;;3.90;99.90;;;;;;5031205;28;20017;-71
2024/01/18 09:41:55;;;;;;;0.70;0.70;;;3.80;99.90;;;;;;5031049;28;20025;-72
2024/01/18 09:44:27;;;;;;;0.70;0.70;;;3.80;99.90;;;;;;5025992;28;20041;-70
2024/01/18 09:46:54;;;;;;;0.80;0.80;;;3.70;99.90;;;;;;5032039;28;20364;-71
2024/01/18 09:49:19;;;;;;;0.70;0.70;;;3.80;99.90;;;;;;5032387;28;20051;-71
2024/01/18 09:51:47;;;;;;;1.65;1.35;;;3.70;99.90;;;;;;5032295;28;20854;-71
2024/01/18 09:54:13;;;;;;;1.05;1.00;;;3.70;99.90;;;;;;5031304;28;20034;-71
2024/01/18 09:56:43;;;;;;;0.90;0.90;;;3.60;99.90;;;;;;5031133;28;20068;-71
2024/01/18 09:59:18;;;;;;;0.90;0.90;;;3.50;99.90;;;;;;5032233;28;20030;-70
2024/01/18 10:01:46;;;;;;;0.80;0.80;;;3.40;99.90;;;;;;5032554;28;20033;-70
2024/01/18 10:04:13;;;;;;;0.80;0.80;;;3.40;99.90;;;;;;5032030;28;20420;-71
2024/01/18 10:06:40;;;;;;;0.80;0.80;;;3.50;99.90;;;;;;5032363;28;20029;-70
2024/01/18 10:09:06;;;;;;;0.70;0.70;;;3.60;99.90;;;;;;5031602;28;20029;-70
2024/01/18 10:11:32;;;;;;;0.68;0.68;;;3.70;99.90;;;;;;5032399;28;20039;-70
2024/01/18 10:13:59;;;;;;;0.70;0.70;;;3.70;99.90;;;;;;5032265;28;20030;-71
2024/01/18 10:16:36;;;;;;;0.80;0.80;;;3.80;99.90;;;;;;5032097;28;20048;-71
2024/01/18 10:19:03;;;;;;;1.00;1.00;;;3.80;99.90;;;;;;5032307;28;20029;-71
2024/01/18 10:21:31;;;;;;;2.40;0.93;;;3.70;99.90;;;;;;5031934;28;20079;-72
2024/01/18 10:23:57;;;;;;;0.30;0.30;;;4.20;99.90;;;;;;5031182;28;20030;-72
2024/01/18 10:26:27;;;;;;;0.10;0.10;;;5.30;99.90;;;;;;5032234;28;20389;-72
2024/01/18 10:28:52;;;;;;;0.20;0.20;;;6.50;99.90;;;;;;5031986;28;20048;-73
2024/01/18 10:31:18;;;;;;;0.30;0.30;;;6.90;99.90;;;;;;5031915;28;20477;-73
2024/01/18 10:33:46;;;;;;;0.30;0.30;;;6.90;99.90;;;;;;5032001;28;20052;-72
2024/01/18 10:36:12;;;;;;;0.60;0.60;;;6.70;99.90;;;;;;5032185;28;20530;-72
2024/01/18 10:38:39;;;;;;;0.20;0.20;;;6.80;99.90;;;;;;5032501;28;20025;-72
2024/01/18 10:41:05;;;;;;;0.20;0.20;;;7.40;99.90;;;;;;5032234;28;20056;-71
2024/01/18 10:43:35;;;;;;;0.20;0.20;;;8.10;99.90;;;;;;5031842;28;20425;-71
2024/01/18 10:46:01;;;;;;;0.40;0.40;;;8.80;99.90;;;;;;5032093;28;20033;-71
2024/01/18 10:48:27;;;;;;;0.10;0.10;;;9.20;99.90;;;;;;5031926;28;20060;-72
2024/01/18 10:50:55;;;;;;;0.10;0.10;;;9.60;99.90;;;;;;5031763;28;20036;-71
2024/01/18 10:53:33;;;;;;;0.82;0.32;;;10.00;99.90;;;;;;5032010;28;20029;-70
2024/01/18 10:56:00;;;;;;;0.10;0.10;;;10.50;99.90;;;;;;5032061;28;20029;-70
2024/01/18 10:58:26;;;;;;;0.10;0.10;;;10.80;99.90;;;;;;5031941;28;20068;-69
2024/01/18 11:00:52;;;;;;;0.30;0.30;;;10.90;99.90;;;;;;5031945;28;20069;-70
2024/01/18 11:03:18;;;;;;;0.10;0.10;;;10.80;99.90;;;;;;5031361;28;20107;-69
2024/01/18 11:05:45;;;;;;;0.20;0.20;;;10.60;99.90;;;;;;5031965;28;20094;-69
2024/01/18 11:08:12;;;;;;;2.35;1.27;;;10.50;99.90;;;;;;5032047;28;20057;-70
2024/01/18 11:10:39;;;;;;;0.85;0.85;;;10.80;99.90;;;;;;5031750;28;20049;-70
2024/01/18 11:13:06;;;;;;;0.10;0.10;;;11.10;99.90;;;;;;5034471;28;20029;-70
2024/01/18 11:15:33;;;;;;;0.10;0.10;;;11.60;99.90;;;;;;5035052;28;20088;-70
2024/01/18 11:17:58;;;;;;;0.17;0.17;;;12.30;99.90;;;;;;5035092;28;20378;-71
2024/01/18 11:20:24;;;;;;;0.63;0.38;;;13.00;99.90;;;;;;5034327;28;20029;-72
2024/01/18 11:22:50;;;;;;;0.10;0.10;;;13.60;99.90;;;;;;5033340;28;20117;-70
2024/01/18 11:25:26;;;;;;;0.47;0.47;;;14.20;99.90;;;;;;5035393;28;20462;-69
2024/01/18 11:27:52;;;;;;;0.30;0.30;;;14.90;99.90;;;;;;5034704;28;20362;-72
2024/01/18 11:30:38;;;;;;;0.10;0.10;;;15.50;99.90;;;;;;5035259;28;20037;-71
2024/01/18 11:33:07;;;;;;;0.10;0.10;;;16.10;99.90;;;;;;5035299;28;20030;-71
2024/01/18 11:35:34;;;;;;;0.10;0.10;;;16.80;99.00;;;;;;5036811;28;20103;-72
2024/01/18 11:38:20;;;;;;;0.10;0.05;;;17.40;98.10;;;;;;5047351;28;20033;-73
2024/01/18 11:40:46;;;;;;;0.05;0.05;;;17.90;96.90;;;;;;5037649;28;20056;-72
2024/01/18 11:43:12;;;;;;;0.32;0.32;;;17.80;95.60;;;;;;5049517;28;20045;-72
2024/01/18 11:45:38;;;;;;;1.38;0.63;;;16.70;95.60;;;;;;5042525;28;20376;-72
2024/01/18 11:48:04;;;;;;;0.52;0.52;;;15.30;96.50;;;;;;5040991;28;20030;-72
2024/01/18 11:50:30;;;;;;;0.10;0.10;;;13.80;98.10;;;;;;5050303;28;20035;-73
2024/01/18 11:52:56;;;;;;;0.28;0.20;;;12.30;99.80;;;;;;5038050;28;20069;-72
2024/01/18 11:55:23;;;;;;;0.17;0.17;;;10.90;99.90;;;;;;5047473;28;20033;-72
2024/01/18 11:57:52;;;;;;;0.10;0.10;;;9.70;99.90;;;;;;5043254;28;20028;-72
2024/01/18 12:00:19;;;;;;;0.25;0.25;;;8.60;99.90;;;;;;5039806;28;20107;-71
2024/01/18 12:02:44;;;;;;;0.10;0.10;;;8.30;99.90;;;;;;5050892;28;20037;-72
2024/01/18 12:05:10;;;;;;;0.10;0.10;;;8.60;99.90;;;;;;5039063;28;20051;-72
2024/01/18 12:07:36;;;;;;;0.10;0.10;;;9.20;99.90;;;;;;5045800;28;20029;-72
2024/01/18 12:10:02;;;;;;;0.28;0.28;;;9.90;99.90;;;;;;5045700;28;20094;-73
2024/01/18 12:12:28;;;;;;;0.10;0.10;;;10.60;99.90;;;;;;5038548;28;20029;-72
2024/01/18 12:14:53;;;;;;;0.10;0.10;;;11.30;99.90;;;;;;5049084;28;20040;-73
2024/01/18 12:17:19;;;;;;;0.08;0.08;;;11.80;99.90;;;;;;5040150;28;20104;-72
2024/01/18 12:19:47;;;;;;;0.10;0.10;;;12.30;99.90;;;;;;5044120;28;20033;-71
2024/01/18 12:22:16;;;;;;;2.15;0.47;;;12.70;99.90;;;;;;5047056;28;20025;-72
2024/01/18 12:24:42;;;;;;;0.20;0.20;;;13.00;99.90;;;;;;5036014;28;20028;-71
2024/01/18 12:27:08;;;;;;;0.00;0.00;;;13.20;99.90;;;;;;5049295;28;20022;-72
2024/01/18 12:29:36;;;;;;;0.10;0.10;;;13.30;99.90;;;;;;5041823;28;20044;-72
2024/01/18 12:32:02;;;;;;;0.10;0.10;;;13.50;99.70;;;;;;5041904;28;20037;-72
2024/01/18 12:34:29;;;;;;;1.95;1.25;;;13.60;99.90;;;;;;5049095;28;20040;-72
2024/01/18 12:36:56;;;;;;;0.63;0.63;;;13.90;99.90;;;;;;5037054;28;20052;-71
2024/01/18 12:39:22;;;;;;;0.10;0.10;;;14.10;99.60;;;;;;5047120;28;20104;-72
2024/01/18 12:41:54;;;;;;;0.10;0.10;;;14.40;98.20;;;;;;5042239;28;20120;-71
2024/01/18 12:44:22;;;;;;;0.10;0.10;;;14.30;97.20;;;;;;5039456;28;20044;-72
2024/01/18 12:46:50;;;;;;;0.10;0.10;;;14.10;98.30;;;;;;5050068;28;20036;-71
2024/01/18 12:49:19;;;;;;;0.20;0.20;;;14.10;98.20;;;;;;5039187;28;20044;-72